sensor_id;sensor_type;location;lat;lon;timestamp;P1;durP1;ratioP1;P2;durP2;ratioP2
52450;SDS011;38366;53.176;6.540;2022-07-11T00:00:45;5.28;;;1.90;;
52450;SDS011;38366;53.176;6.540;2022-07-11T00:03:11;5.50;;;1.77;;
52450;SDS011;38366;53.176;6.540;2022-07-11T00:05:36;2.88;;;2.10;;
52450;SDS011;38366;53.176;6.540;2022-07-11T00:08:03;4.85;;;1.75;;
52450;SDS011;38366;53.176;6.540;2022-07-11T00:10:31;5.95;;;1.70;;
52450;SDS011;38366;53.176;6.540;2022-07-11T00:12:57;5.38;;;1.98;;
52450;SDS011;38366;53.176;6.540;2022-07-11T00:15:24;3.90;;;1.77;;
52450;SDS011;38366;53.176;6.540;2022-07-11T00:17:49;4.22;;;1.80;;
52450;SDS011;38366;53.176;6.540;2022-07-11T00:20:15;5.95;;;1.95;;
52450;SDS011;38366;53.176;6.540;2022-07-11T00:22:41;5.35;;;1.80;;
52450;SDS011;38366;53.176;6.540;2022-07-11T00:25:07;4.38;;;2.15;;
52450;SDS011;38366;53.176;6.540;2022-07-11T00:27:33;5.68;;;1.90;;
52450;SDS011;38366;53.176;6.540;2022-07-11T00:29:58;3.95;;;1.83;;
52450;SDS011;38366;53.176;6.540;2022-07-11T00:32:24;4.65;;;1.85;;
52450;SDS011;38366;53.176;6.540;2022-07-11T00:34:49;4.95;;;1.83;;
52450;SDS011;38366;53.176;6.540;2022-07-11T00:37:16;3.50;;;1.75;;
52450;SDS011;38366;53.176;6.540;2022-07-11T00:39:42;4.20;;;1.73;;
52450;SDS011;38366;53.176;6.540;2022-07-11T00:42:08;2.95;;;2.33;;
52450;SDS011;38366;53.176;6.540;2022-07-11T00:44:33;3.85;;;2.47;;
52450;SDS011;38366;53.176;6.540;2022-07-11T00:47:01;4.10;;;2.38;;
52450;SDS011;38366;53.176;6.540;2022-07-11T00:49:28;4.38;;;2.00;;
52450;SDS011;38366;53.176;6.540;2022-07-11T00:51:54;4.22;;;2.13;;
52450;SDS011;38366;53.176;6.540;2022-07-11T00:54:20;3.90;;;2.10;;
52450;SDS011;38366;53.176;6.540;2022-07-11T00:56:48;5.40;;;2.50;;
52450;SDS011;38366;53.176;6.540;2022-07-11T00:59:15;4.18;;;2.15;;
52450;SDS011;38366;53.176;6.540;2022-07-11T01:01:43;5.53;;;2.40;;
52450;SDS011;38366;53.176;6.540;2022-07-11T01:04:10;4.15;;;2.20;;
52450;SDS011;38366;53.176;6.540;2022-07-11T01:06:35;5.07;;;2.20;;
52450;SDS011;38366;53.176;6.540;2022-07-11T01:09:01;4.38;;;2.30;;
52450;SDS011;38366;53.176;6.540;2022-07-11T01:11:27;4.28;;;1.95;;
52450;SDS011;38366;53.176;6.540;2022-07-11T01:13:53;3.17;;;2.20;;
52450;SDS011;38366;53.176;6.540;2022-07-11T01:16:20;4.15;;;2.17;;
52450;SDS011;38366;53.176;6.540;2022-07-11T01:18:48;3.60;;;2.08;;
52450;SDS011;38366;53.176;6.540;2022-07-11T01:21:21;3.88;;;2.28;;
52450;SDS011;38366;53.176;6.540;2022-07-11T01:23:55;4.70;;;2.40;;
52450;SDS011;38366;53.176;6.540;2022-07-11T01:26:25;5.90;;;2.42;;
52450;SDS011;38366;53.176;6.540;2022-07-11T01:28:52;3.70;;;2.28;;
52450;SDS011;38366;53.176;6.540;2022-07-11T01:31:19;6.15;;;2.10;;
52450;SDS011;38366;53.176;6.540;2022-07-11T01:33:45;5.40;;;2.30;;
52450;SDS011;38366;53.176;6.540;2022-07-11T01:36:11;3.03;;;2.20;;
52450;SDS011;38366;53.176;6.540;2022-07-11T01:38:38;3.90;;;2.38;;
52450;SDS011;38366;53.176;6.540;2022-07-11T01:41:04;3.88;;;2.63;;
52450;SDS011;38366;53.176;6.540;2022-07-11T01:43:30;3.50;;;2.60;;
52450;SDS011;38366;53.176;6.540;2022-07-11T01:45:55;3.65;;;2.63;;
52450;SDS011;38366;53.176;6.540;2022-07-11T01:48:22;4.75;;;2.22;;
52450;SDS011;38366;53.176;6.540;2022-07-11T01:50:48;5.40;;;2.67;;
52450;SDS011;38366;53.176;6.540;2022-07-11T01:53:14;4.50;;;2.45;;
52450;SDS011;38366;53.176;6.540;2022-07-11T01:58:06;4.30;;;3.17;;
52450;SDS011;38366;53.176;6.540;2022-07-11T02:00:32;4.15;;;2.83;;
52450;SDS011;38366;53.176;6.540;2022-07-11T02:02:58;4.45;;;2.67;;
52450;SDS011;38366;53.176;6.540;2022-07-11T02:05:24;4.03;;;2.72;;
52450;SDS011;38366;53.176;6.540;2022-07-11T02:07:49;4.50;;;2.40;;
52450;SDS011;38366;53.176;6.540;2022-07-11T02:10:34;3.65;;;2.50;;
52450;SDS011;38366;53.176;6.540;2022-07-11T02:12:59;2.58;;;2.17;;
52450;SDS011;38366;53.176;6.540;2022-07-11T02:15:26;3.80;;;2.20;;
52450;SDS011;38366;53.176;6.540;2022-07-11T02:17:53;5.57;;;2.83;;
52450;SDS011;38366;53.176;6.540;2022-07-11T02:20:19;4.32;;;2.42;;
52450;SDS011;38366;53.176;6.540;2022-07-11T02:22:45;3.97;;;2.58;;
52450;SDS011;38366;53.176;6.540;2022-07-11T02:25:11;4.68;;;2.50;;
52450;SDS011;38366;53.176;6.540;2022-07-11T02:27:37;4.90;;;2.78;;
52450;SDS011;38366;53.176;6.540;2022-07-11T02:30:03;5.95;;;2.60;;
52450;SDS011;38366;53.176;6.540;2022-07-11T02:32:29;5.43;;;2.90;;
52450;SDS011;38366;53.176;6.540;2022-07-11T02:34:55;4.22;;;2.85;;
52450;SDS011;38366;53.176;6.540;2022-07-11T02:37:21;5.35;;;2.35;;
52450;SDS011;38366;53.176;6.540;2022-07-11T02:39:47;5.07;;;2.95;;
52450;SDS011;38366;53.176;6.540;2022-07-11T02:42:12;4.93;;;2.70;;
52450;SDS011;38366;53.176;6.540;2022-07-11T02:44:38;3.70;;;2.78;;
52450;SDS011;38366;53.176;6.540;2022-07-11T02:47:04;4.43;;;2.83;;
52450;SDS011;38366;53.176;6.540;2022-07-11T02:49:30;5.88;;;2.90;;
52450;SDS011;38366;53.176;6.540;2022-07-11T02:51:57;6.50;;;3.20;;
52450;SDS011;38366;53.176;6.540;2022-07-11T02:54:22;7.07;;;3.10;;
52450;SDS011;38366;53.176;6.540;2022-07-11T02:56:48;6.90;;;2.90;;
52450;SDS011;38366;53.176;6.540;2022-07-11T02:59:14;5.43;;;2.70;;
52450;SDS011;38366;53.176;6.540;2022-07-11T03:01:40;4.68;;;2.92;;
52450;SDS011;38366;53.176;6.540;2022-07-11T03:04:09;5.97;;;2.70;;
52450;SDS011;38366;53.176;6.540;2022-07-11T03:06:35;6.43;;;3.35;;
52450;SDS011;38366;53.176;6.540;2022-07-11T03:11:27;8.55;;;3.00;;
52450;SDS011;38366;53.176;6.540;2022-07-11T03:13:52;13.82;;;2.72;;
52450;SDS011;38366;53.176;6.540;2022-07-11T03:16:19;5.68;;;2.80;;
52450;SDS011;38366;53.176;6.540;2022-07-11T03:18:44;5.70;;;2.63;;
52450;SDS011;38366;53.176;6.540;2022-07-11T03:21:10;6.05;;;2.40;;
52450;SDS011;38366;53.176;6.540;2022-07-11T03:23:36;5.03;;;2.22;;
52450;SDS011;38366;53.176;6.540;2022-07-11T03:26:02;6.63;;;2.50;;
52450;SDS011;38366;53.176;6.540;2022-07-11T03:28:28;3.65;;;2.28;;
52450;SDS011;38366;53.176;6.540;2022-07-11T03:30:53;5.65;;;2.13;;
52450;SDS011;38366;53.176;6.540;2022-07-11T03:33:20;3.60;;;1.80;;
52450;SDS011;38366;53.176;6.540;2022-07-11T03:35:46;2.88;;;1.85;;
52450;SDS011;38366;53.176;6.540;2022-07-11T03:38:12;3.53;;;1.52;;
52450;SDS011;38366;53.176;6.540;2022-07-11T03:40:38;9.32;;;2.13;;
52450;SDS011;38366;53.176;6.540;2022-07-11T03:43:04;8.48;;;2.25;;
52450;SDS011;38366;53.176;6.540;2022-07-11T03:45:30;7.15;;;1.88;;
52450;SDS011;38366;53.176;6.540;2022-07-11T03:47:55;5.35;;;2.10;;
52450;SDS011;38366;53.176;6.540;2022-07-11T03:50:21;4.43;;;2.00;;
52450;SDS011;38366;53.176;6.540;2022-07-11T03:52:47;3.08;;;1.67;;
52450;SDS011;38366;53.176;6.540;2022-07-11T03:55:12;1.98;;;1.50;;
52450;SDS011;38366;53.176;6.540;2022-07-11T03:57:38;3.45;;;1.40;;
52450;SDS011;38366;53.176;6.540;2022-07-11T04:00:04;2.72;;;1.33;;
52450;SDS011;38366;53.176;6.540;2022-07-11T04:02:32;1.67;;;1.00;;
52450;SDS011;38366;53.176;6.540;2022-07-11T04:04:59;4.43;;;1.27;;
52450;SDS011;38366;53.176;6.540;2022-07-11T04:07:25;3.05;;;1.13;;
52450;SDS011;38366;53.176;6.540;2022-07-11T04:09:53;2.92;;;1.08;;
52450;SDS011;38366;53.176;6.540;2022-07-11T04:12:19;3.03;;;1.20;;
52450;SDS011;38366;53.176;6.540;2022-07-11T04:14:45;2.38;;;1.20;;
52450;SDS011;38366;53.176;6.540;2022-07-11T04:17:11;4.68;;;1.40;;
52450;SDS011;38366;53.176;6.540;2022-07-11T04:19:37;1.80;;;1.00;;
52450;SDS011;38366;53.176;6.540;2022-07-11T04:24:29;3.20;;;0.95;;
52450;SDS011;38366;53.176;6.540;2022-07-11T04:26:55;4.05;;;1.05;;
52450;SDS011;38366;53.176;6.540;2022-07-11T04:29:20;7.28;;;1.30;;
52450;SDS011;38366;53.176;6.540;2022-07-11T04:31:47;2.03;;;1.20;;
52450;SDS011;38366;53.176;6.540;2022-07-11T04:34:12;1.45;;;0.93;;
52450;SDS011;38366;53.176;6.540;2022-07-11T04:36:39;3.30;;;0.98;;
52450;SDS011;38366;53.176;6.540;2022-07-11T04:39:04;2.25;;;1.08;;
52450;SDS011;38366;53.176;6.540;2022-07-11T04:41:30;4.85;;;1.00;;
52450;SDS011;38366;53.176;6.540;2022-07-11T04:43:56;3.78;;;0.95;;
52450;SDS011;38366;53.176;6.540;2022-07-11T04:46:21;2.88;;;0.90;;
52450;SDS011;38366;53.176;6.540;2022-07-11T04:48:47;4.35;;;0.80;;
52450;SDS011;38366;53.176;6.540;2022-07-11T04:51:13;2.33;;;0.80;;
52450;SDS011;38366;53.176;6.540;2022-07-11T04:53:39;3.13;;;0.77;;
52450;SDS011;38366;53.176;6.540;2022-07-11T04:56:05;2.85;;;0.73;;
52450;SDS011;38366;53.176;6.540;2022-07-11T04:58:31;3.08;;;0.73;;
52450;SDS011;38366;53.176;6.540;2022-07-11T05:00:57;1.67;;;0.50;;
52450;SDS011;38366;53.176;6.540;2022-07-11T05:03:24;2.67;;;0.80;;
52450;SDS011;38366;53.176;6.540;2022-07-11T05:05:49;2.58;;;0.80;;
52450;SDS011;38366;53.176;6.540;2022-07-11T05:08:15;1.60;;;0.80;;
52450;SDS011;38366;53.176;6.540;2022-07-11T05:10:41;2.42;;;0.70;;
52450;SDS011;38366;53.176;6.540;2022-07-11T05:13:06;1.90;;;0.70;;
52450;SDS011;38366;53.176;6.540;2022-07-11T05:15:32;2.70;;;0.73;;
52450;SDS011;38366;53.176;6.540;2022-07-11T05:17:58;1.70;;;0.60;;
52450;SDS011;38366;53.176;6.540;2022-07-11T05:20:24;1.58;;;0.70;;
52450;SDS011;38366;53.176;6.540;2022-07-11T05:22:49;1.27;;;0.50;;
52450;SDS011;38366;53.176;6.540;2022-07-11T05:25:15;2.15;;;0.60;;
52450;SDS011;38366;53.176;6.540;2022-07-11T05:27:40;1.08;;;0.50;;
52450;SDS011;38366;53.176;6.540;2022-07-11T05:30:06;3.22;;;0.60;;
52450;SDS011;38366;53.176;6.540;2022-07-11T05:32:33;1.92;;;0.60;;
52450;SDS011;38366;53.176;6.540;2022-07-11T05:34:59;2.55;;;0.50;;
52450;SDS011;38366;53.176;6.540;2022-07-11T05:37:27;2.92;;;0.50;;
52450;SDS011;38366;53.176;6.540;2022-07-11T05:39:53;1.20;;;0.30;;
52450;SDS011;38366;53.176;6.540;2022-07-11T05:42:19;3.30;;;0.50;;
52450;SDS011;38366;53.176;6.540;2022-07-11T05:44:44;2.97;;;0.70;;
52450;SDS011;38366;53.176;6.540;2022-07-11T05:47:10;1.35;;;0.43;;
52450;SDS011;38366;53.176;6.540;2022-07-11T05:49:36;2.25;;;0.60;;
52450;SDS011;38366;53.176;6.540;2022-07-11T05:52:02;1.95;;;0.60;;
52450;SDS011;38366;53.176;6.540;2022-07-11T05:54:28;2.85;;;0.60;;
52450;SDS011;38366;53.176;6.540;2022-07-11T05:56:54;3.55;;;0.70;;
52450;SDS011;38366;53.176;6.540;2022-07-11T05:59:22;3.08;;;1.00;;
52450;SDS011;38366;53.176;6.540;2022-07-11T06:01:48;2.92;;;0.93;;
52450;SDS011;38366;53.176;6.540;2022-07-11T06:04:14;5.60;;;1.00;;
52450;SDS011;38366;53.176;6.540;2022-07-11T06:06:39;2.90;;;0.70;;
52450;SDS011;38366;53.176;6.540;2022-07-11T06:09:05;1.75;;;0.80;;
52450;SDS011;38366;53.176;6.540;2022-07-11T06:11:31;3.50;;;0.70;;
52450;SDS011;38366;53.176;6.540;2022-07-11T06:13:57;2.97;;;0.57;;
52450;SDS011;38366;53.176;6.540;2022-07-11T06:16:23;2.10;;;0.93;;
52450;SDS011;38366;53.176;6.540;2022-07-11T06:18:49;2.22;;;0.60;;
52450;SDS011;38366;53.176;6.540;2022-07-11T06:23:41;3.00;;;0.80;;
52450;SDS011;38366;53.176;6.540;2022-07-11T06:26:07;1.55;;;0.50;;
52450;SDS011;38366;53.176;6.540;2022-07-11T06:28:33;1.35;;;0.40;;
52450;SDS011;38366;53.176;6.540;2022-07-11T06:30:59;3.13;;;0.40;;
52450;SDS011;38366;53.176;6.540;2022-07-11T06:33:26;2.05;;;0.57;;
52450;SDS011;38366;53.176;6.540;2022-07-11T06:35:52;2.15;;;0.40;;
52450;SDS011;38366;53.176;6.540;2022-07-11T06:38:18;1.63;;;0.32;;
52450;SDS011;38366;53.176;6.540;2022-07-11T06:40:44;6.38;;;0.45;;
52450;SDS011;38366;53.176;6.540;2022-07-11T06:43:10;1.40;;;0.30;;
52450;SDS011;38366;53.176;6.540;2022-07-11T06:45:37;1.77;;;0.40;;
52450;SDS011;38366;53.176;6.540;2022-07-11T06:48:03;2.50;;;0.50;;
52450;SDS011;38366;53.176;6.540;2022-07-11T06:50:30;1.38;;;0.40;;
52450;SDS011;38366;53.176;6.540;2022-07-11T06:52:56;2.55;;;0.57;;
52450;SDS011;38366;53.176;6.540;2022-07-11T06:55:21;2.55;;;0.60;;
52450;SDS011;38366;53.176;6.540;2022-07-11T06:57:47;2.72;;;0.55;;
52450;SDS011;38366;53.176;6.540;2022-07-11T07:00:15;1.45;;;0.50;;
52450;SDS011;38366;53.176;6.540;2022-07-11T07:02:42;2.78;;;0.40;;
52450;SDS011;38366;53.176;6.540;2022-07-11T07:05:08;2.63;;;0.30;;
52450;SDS011;38366;53.176;6.540;2022-07-11T07:07:34;1.52;;;0.32;;
52450;SDS011;38366;53.176;6.540;2022-07-11T07:10:00;0.40;;;0.20;;
52450;SDS011;38366;53.176;6.540;2022-07-11T07:12:26;2.03;;;0.45;;
52450;SDS011;38366;53.176;6.540;2022-07-11T07:14:52;1.60;;;0.40;;
52450;SDS011;38366;53.176;6.540;2022-07-11T07:17:18;1.65;;;0.40;;
52450;SDS011;38366;53.176;6.540;2022-07-11T07:19:44;2.55;;;0.68;;
52450;SDS011;38366;53.176;6.540;2022-07-11T07:22:10;2.70;;;0.47;;
52450;SDS011;38366;53.176;6.540;2022-07-11T07:24:39;3.13;;;0.75;;
52450;SDS011;38366;53.176;6.540;2022-07-11T07:27:05;1.60;;;0.70;;
52450;SDS011;38366;53.176;6.540;2022-07-11T07:29:31;1.52;;;0.60;;
52450;SDS011;38366;53.176;6.540;2022-07-11T07:31:57;1.55;;;0.50;;
52450;SDS011;38366;53.176;6.540;2022-07-11T07:34:24;2.42;;;0.70;;
52450;SDS011;38366;53.176;6.540;2022-07-11T07:36:51;1.65;;;0.70;;
52450;SDS011;38366;53.176;6.540;2022-07-11T07:39:17;1.55;;;0.60;;
52450;SDS011;38366;53.176;6.540;2022-07-11T07:41:43;1.73;;;0.57;;
52450;SDS011;38366;53.176;6.540;2022-07-11T07:44:09;2.13;;;0.60;;
52450;SDS011;38366;53.176;6.540;2022-07-11T07:46:34;0.70;;;0.38;;
52450;SDS011;38366;53.176;6.540;2022-07-11T07:49:01;1.60;;;0.60;;
52450;SDS011;38366;53.176;6.540;2022-07-11T07:51:27;2.47;;;0.35;;
52450;SDS011;38366;53.176;6.540;2022-07-11T07:53:54;1.80;;;0.50;;
52450;SDS011;38366;53.176;6.540;2022-07-11T07:56:20;1.50;;;0.30;;
52450;SDS011;38366;53.176;6.540;2022-07-11T07:58:46;1.27;;;0.30;;
52450;SDS011;38366;53.176;6.540;2022-07-11T08:01:11;0.68;;;0.22;;
52450;SDS011;38366;53.176;6.540;2022-07-11T08:03:55;1.27;;;0.20;;
52450;SDS011;38366;53.176;6.540;2022-07-11T08:06:21;1.23;;;0.40;;
52450;SDS011;38366;53.176;6.540;2022-07-11T08:08:47;1.02;;;0.30;;
52450;SDS011;38366;53.176;6.540;2022-07-11T08:11:14;1.67;;;0.30;;
52450;SDS011;38366;53.176;6.540;2022-07-11T08:13:40;0.20;;;0.10;;
52450;SDS011;38366;53.176;6.540;2022-07-11T08:16:06;0.98;;;0.10;;
52450;SDS011;38366;53.176;6.540;2022-07-11T08:18:32;0.68;;;0.20;;
52450;SDS011;38366;53.176;6.540;2022-07-11T08:20:58;0.70;;;0.10;;
52450;SDS011;38366;53.176;6.540;2022-07-11T08:23:24;0.45;;;0.10;;
52450;SDS011;38366;53.176;6.540;2022-07-11T08:25:50;0.35;;;0.10;;
52450;SDS011;38366;53.176;6.540;2022-07-11T08:28:16;1.25;;;0.10;;
52450;SDS011;38366;53.176;6.540;2022-07-11T08:30:41;0.40;;;0.20;;
52450;SDS011;38366;53.176;6.540;2022-07-11T08:33:07;0.35;;;0.10;;
52450;SDS011;38366;53.176;6.540;2022-07-11T08:35:33;0.40;;;0.10;;
52450;SDS011;38366;53.176;6.540;2022-07-11T08:37:59;0.40;;;0.10;;
52450;SDS011;38366;53.176;6.540;2022-07-11T08:40:24;0.20;;;0.20;;
52450;SDS011;38366;53.176;6.540;2022-07-11T08:42:50;0.90;;;0.10;;
52450;SDS011;38366;53.176;6.540;2022-07-11T08:45:17;0.32;;;0.10;;
52450;SDS011;38366;53.176;6.540;2022-07-11T08:47:44;0.30;;;0.10;;
52450;SDS011;38366;53.176;6.540;2022-07-11T08:52:36;0.43;;;0.03;;
52450;SDS011;38366;53.176;6.540;2022-07-11T08:55:03;0.20;;;0.10;;
52450;SDS011;38366;53.176;6.540;2022-07-11T08:57:35;1.10;;;0.10;;
52450;SDS011;38366;53.176;6.540;2022-07-11T09:00:04;0.08;;;0.08;;
52450;SDS011;38366;53.176;6.540;2022-07-11T09:02:33;0.10;;;0.00;;
52450;SDS011;38366;53.176;6.540;2022-07-11T09:05:00;0.10;;;0.10;;
52450;SDS011;38366;53.176;6.540;2022-07-11T09:07:31;0.25;;;0.10;;
52450;SDS011;38366;53.176;6.540;2022-07-11T09:09:57;0.00;;;0.00;;
52450;SDS011;38366;53.176;6.540;2022-07-11T09:12:23;0.70;;;0.17;;
52450;SDS011;38366;53.176;6.540;2022-07-11T09:14:49;0.70;;;0.10;;
52450;SDS011;38366;53.176;6.540;2022-07-11T09:17:28;0.35;;;0.10;;
52450;SDS011;38366;53.176;6.540;2022-07-11T09:19:57;0.35;;;0.05;;
52450;SDS011;38366;53.176;6.540;2022-07-11T09:22:23;0.38;;;0.10;;
52450;SDS011;38366;53.176;6.540;2022-07-11T09:25:12;1.58;;;0.10;;
52450;SDS011;38366;53.176;6.540;2022-07-11T09:28:00;0.40;;;0.10;;
52450;SDS011;38366;53.176;6.540;2022-07-11T09:30:33;1.45;;;0.10;;
52450;SDS011;38366;53.176;6.540;2022-07-11T09:33:02;1.27;;;0.10;;
52450;SDS011;38366;53.176;6.540;2022-07-11T09:37:58;0.98;;;0.20;;
52450;SDS011;38366;53.176;6.540;2022-07-11T09:40:27;0.80;;;0.17;;
52450;SDS011;38366;53.176;6.540;2022-07-11T09:42:53;0.50;;;0.10;;
52450;SDS011;38366;53.176;6.540;2022-07-11T09:45:21;0.75;;;0.13;;
52450;SDS011;38366;53.176;6.540;2022-07-11T09:47:50;1.20;;;0.10;;
52450;SDS011;38366;53.176;6.540;2022-07-11T09:50:21;0.93;;;0.10;;
52450;SDS011;38366;53.176;6.540;2022-07-11T09:53:07;2.45;;;0.10;;
52450;SDS011;38366;53.176;6.540;2022-07-11T09:55:37;1.23;;;0.20;;
52450;SDS011;38366;53.176;6.540;2022-07-11T09:58:06;0.40;;;0.10;;
52450;SDS011;38366;53.176;6.540;2022-07-11T10:00:34;2.05;;;0.32;;
52450;SDS011;38366;53.176;6.540;2022-07-11T10:03:00;0.57;;;0.10;;
52450;SDS011;38366;53.176;6.540;2022-07-11T10:05:27;0.30;;;0.10;;
52450;SDS011;38366;53.176;6.540;2022-07-11T10:07:53;0.73;;;0.10;;
52450;SDS011;38366;53.176;6.540;2022-07-11T10:10:20;0.60;;;0.20;;
52450;SDS011;38366;53.176;6.540;2022-07-11T10:12:46;1.17;;;0.30;;
52450;SDS011;38366;53.176;6.540;2022-07-11T10:15:17;0.30;;;0.10;;
52450;SDS011;38366;53.176;6.540;2022-07-11T10:20:32;0.40;;;0.17;;
52450;SDS011;38366;53.176;6.540;2022-07-11T10:28:52;0.30;;;0.10;;
52450;SDS011;38366;53.176;6.540;2022-07-11T10:31:22;0.68;;;0.15;;
52450;SDS011;38366;53.176;6.540;2022-07-11T10:36:28;0.20;;;0.10;;
52450;SDS011;38366;53.176;6.540;2022-07-11T10:41:40;0.40;;;0.13;;
52450;SDS011;38366;53.176;6.540;2022-07-11T10:44:05;1.05;;;0.20;;
52450;SDS011;38366;53.176;6.540;2022-07-11T10:46:32;1.52;;;0.10;;
52450;SDS011;38366;53.176;6.540;2022-07-11T10:56:45;1.35;;;0.20;;
52450;SDS011;38366;53.176;6.540;2022-07-11T10:59:27;0.50;;;0.20;;
52450;SDS011;38366;53.176;6.540;2022-07-11T11:02:26;0.90;;;0.32;;
52450;SDS011;38366;53.176;6.540;2022-07-11T11:07:32;0.50;;;0.20;;
52450;SDS011;38366;53.176;6.540;2022-07-11T11:23:26;0.43;;;0.17;;
52450;SDS011;38366;53.176;6.540;2022-07-11T11:26:05;0.32;;;0.10;;
52450;SDS011;38366;53.176;6.540;2022-07-11T11:28:35;0.20;;;0.00;;
52450;SDS011;38366;53.176;6.540;2022-07-11T11:31:03;1.38;;;0.10;;
52450;SDS011;38366;53.176;6.540;2022-07-11T11:33:34;0.22;;;0.10;;
52450;SDS011;38366;53.176;6.540;2022-07-11T11:36:02;0.50;;;0.10;;
52450;SDS011;38366;53.176;6.540;2022-07-11T11:38:37;2.17;;;0.17;;
52450;SDS011;38366;53.176;6.540;2022-07-11T11:41:09;0.80;;;0.10;;
52450;SDS011;38366;53.176;6.540;2022-07-11T11:46:01;1.85;;;0.20;;
52450;SDS011;38366;53.176;6.540;2022-07-11T11:50:59;0.15;;;0.10;;
52450;SDS011;38366;53.176;6.540;2022-07-11T11:53:29;0.80;;;0.15;;
52450;SDS011;38366;53.176;6.540;2022-07-11T11:58:46;0.63;;;0.10;;
52450;SDS011;38366;53.176;6.540;2022-07-11T12:01:12;0.63;;;0.10;;
52450;SDS011;38366;53.176;6.540;2022-07-11T12:06:21;1.83;;;0.32;;
52450;SDS011;38366;53.176;6.540;2022-07-11T12:08:49;1.58;;;0.30;;
52450;SDS011;38366;53.176;6.540;2022-07-11T12:11:15;2.28;;;0.38;;
52450;SDS011;38366;53.176;6.540;2022-07-11T12:13:42;0.60;;;0.20;;
52450;SDS011;38366;53.176;6.540;2022-07-11T12:16:15;1.58;;;0.30;;
52450;SDS011;38366;53.176;6.540;2022-07-11T12:19:01;0.98;;;0.32;;
52450;SDS011;38366;53.176;6.540;2022-07-11T12:21:31;0.65;;;0.20;;
52450;SDS011;38366;53.176;6.540;2022-07-11T12:24:00;0.73;;;0.30;;
52450;SDS011;38366;53.176;6.540;2022-07-11T12:26:28;2.05;;;0.30;;
52450;SDS011;38366;53.176;6.540;2022-07-11T12:29:02;0.50;;;0.30;;
52450;SDS011;38366;53.176;6.540;2022-07-11T12:34:18;1.02;;;0.30;;
52450;SDS011;38366;53.176;6.540;2022-07-11T12:36:50;0.43;;;0.20;;
52450;SDS011;38366;53.176;6.540;2022-07-11T12:39:26;3.03;;;0.20;;
52450;SDS011;38366;53.176;6.540;2022-07-11T12:41:55;0.50;;;0.20;;
52450;SDS011;38366;53.176;6.540;2022-07-11T12:44:29;1.15;;;0.30;;
52450;SDS011;38366;53.176;6.540;2022-07-11T12:47:15;2.05;;;0.40;;
52450;SDS011;38366;53.176;6.540;2022-07-11T12:49:42;1.25;;;0.22;;
52450;SDS011;38366;53.176;6.540;2022-07-11T12:52:11;0.45;;;0.30;;
52450;SDS011;38366;53.176;6.540;2022-07-11T12:54:38;1.48;;;0.32;;
52450;SDS011;38366;53.176;6.540;2022-07-11T12:57:04;0.93;;;0.28;;
52450;SDS011;38366;53.176;6.540;2022-07-11T12:59:32;1.00;;;0.10;;
52450;SDS011;38366;53.176;6.540;2022-07-11T13:02:00;1.13;;;0.20;;
52450;SDS011;38366;53.176;6.540;2022-07-11T13:06:58;0.60;;;0.10;;
52450;SDS011;38366;53.176;6.540;2022-07-11T13:10:01;1.60;;;0.17;;
52450;SDS011;38366;53.176;6.540;2022-07-11T13:12:28;0.68;;;0.13;;
52450;SDS011;38366;53.176;6.540;2022-07-11T13:15:00;0.70;;;0.20;;
52450;SDS011;38366;53.176;6.540;2022-07-11T13:17:39;1.77;;;0.20;;
52450;SDS011;38366;53.176;6.540;2022-07-11T13:20:06;0.95;;;0.20;;
52450;SDS011;38366;53.176;6.540;2022-07-11T13:22:40;1.25;;;0.25;;
52450;SDS011;38366;53.176;6.540;2022-07-11T13:25:10;3.17;;;0.40;;
52450;SDS011;38366;53.176;6.540;2022-07-11T13:27:38;2.00;;;0.20;;
52450;SDS011;38366;53.176;6.540;2022-07-11T13:30:06;1.20;;;0.30;;
52450;SDS011;38366;53.176;6.540;2022-07-11T13:32:37;2.03;;;0.30;;
52450;SDS011;38366;53.176;6.540;2022-07-11T13:35:04;1.23;;;0.35;;
52450;SDS011;38366;53.176;6.540;2022-07-11T13:37:30;1.70;;;0.30;;
52450;SDS011;38366;53.176;6.540;2022-07-11T13:39:56;2.03;;;0.50;;
52450;SDS011;38366;53.176;6.540;2022-07-11T13:42:22;1.25;;;0.32;;
52450;SDS011;38366;53.176;6.540;2022-07-11T13:44:49;1.05;;;0.30;;
52450;SDS011;38366;53.176;6.540;2022-07-11T13:47:14;1.50;;;0.52;;
52450;SDS011;38366;53.176;6.540;2022-07-11T13:49:40;0.88;;;0.30;;
52450;SDS011;38366;53.176;6.540;2022-07-11T13:52:07;1.23;;;0.30;;
52450;SDS011;38366;53.176;6.540;2022-07-11T13:54:33;0.85;;;0.32;;
52450;SDS011;38366;53.176;6.540;2022-07-11T13:56:59;0.22;;;0.20;;
52450;SDS011;38366;53.176;6.540;2022-07-11T13:59:25;0.20;;;0.20;;
52450;SDS011;38366;53.176;6.540;2022-07-11T14:01:50;1.10;;;0.30;;
52450;SDS011;38366;53.176;6.540;2022-07-11T14:04:16;0.38;;;0.20;;
52450;SDS011;38366;53.176;6.540;2022-07-11T14:06:42;1.92;;;0.30;;
52450;SDS011;38366;53.176;6.540;2022-07-11T14:09:07;0.35;;;0.20;;
52450;SDS011;38366;53.176;6.540;2022-07-11T14:11:33;0.40;;;0.20;;
52450;SDS011;38366;53.176;6.540;2022-07-11T14:16:25;0.88;;;0.30;;
52450;SDS011;38366;53.176;6.540;2022-07-11T14:18:51;1.08;;;0.28;;
52450;SDS011;38366;53.176;6.540;2022-07-11T14:21:16;0.55;;;0.20;;
52450;SDS011;38366;53.176;6.540;2022-07-11T14:23:42;1.70;;;0.30;;
52450;SDS011;38366;53.176;6.540;2022-07-11T14:26:08;1.10;;;0.50;;
52450;SDS011;38366;53.176;6.540;2022-07-11T14:28:35;0.57;;;0.30;;
52450;SDS011;38366;53.176;6.540;2022-07-11T14:31:01;0.88;;;0.55;;
52450;SDS011;38366;53.176;6.540;2022-07-11T14:33:27;0.45;;;0.30;;
52450;SDS011;38366;53.176;6.540;2022-07-11T14:35:53;2.03;;;0.50;;
52450;SDS011;38366;53.176;6.540;2022-07-11T14:38:19;0.55;;;0.40;;
52450;SDS011;38366;53.176;6.540;2022-07-11T14:40:45;0.60;;;0.30;;
52450;SDS011;38366;53.176;6.540;2022-07-11T14:43:11;1.88;;;0.43;;
52450;SDS011;38366;53.176;6.540;2022-07-11T14:45:37;1.02;;;0.40;;
52450;SDS011;38366;53.176;6.540;2022-07-11T14:48:02;1.67;;;0.40;;
52450;SDS011;38366;53.176;6.540;2022-07-11T14:50:28;1.35;;;0.40;;
52450;SDS011;38366;53.176;6.540;2022-07-11T14:52:54;0.95;;;0.50;;
52450;SDS011;38366;53.176;6.540;2022-07-11T14:55:20;1.35;;;0.90;;
52450;SDS011;38366;53.176;6.540;2022-07-11T14:57:46;1.13;;;0.75;;
52450;SDS011;38366;53.176;6.540;2022-07-11T15:00:11;1.35;;;0.52;;
52450;SDS011;38366;53.176;6.540;2022-07-11T15:02:37;1.27;;;0.70;;
52450;SDS011;38366;53.176;6.540;2022-07-11T15:05:21;1.95;;;0.90;;
52450;SDS011;38366;53.176;6.540;2022-07-11T15:07:47;1.40;;;0.82;;
52450;SDS011;38366;53.176;6.540;2022-07-11T15:10:31;3.17;;;0.73;;
52450;SDS011;38366;53.176;6.540;2022-07-11T15:13:16;2.20;;;0.70;;
52450;SDS011;38366;53.176;6.540;2022-07-11T15:15:41;1.60;;;0.60;;
52450;SDS011;38366;53.176;6.540;2022-07-11T15:18:07;1.83;;;0.70;;
52450;SDS011;38366;53.176;6.540;2022-07-11T15:20:33;2.13;;;0.50;;
52450;SDS011;38366;53.176;6.540;2022-07-11T15:22:58;1.33;;;0.60;;
52450;SDS011;38366;53.176;6.540;2022-07-11T15:25:24;2.20;;;0.57;;
52450;SDS011;38366;53.176;6.540;2022-07-11T15:27:50;2.42;;;0.60;;
52450;SDS011;38366;53.176;6.540;2022-07-11T15:30:16;1.13;;;0.60;;
52450;SDS011;38366;53.176;6.540;2022-07-11T15:35:09;1.17;;;0.80;;
52450;SDS011;38366;53.176;6.540;2022-07-11T15:37:35;1.13;;;0.93;;
52450;SDS011;38366;53.176;6.540;2022-07-11T15:40:01;1.77;;;0.93;;
52450;SDS011;38366;53.176;6.540;2022-07-11T15:42:27;0.88;;;0.57;;
52450;SDS011;38366;53.176;6.540;2022-07-11T15:44:53;1.65;;;0.60;;
52450;SDS011;38366;53.176;6.540;2022-07-11T15:47:18;2.50;;;0.80;;
52450;SDS011;38366;53.176;6.540;2022-07-11T15:49:44;0.60;;;0.50;;
52450;SDS011;38366;53.176;6.540;2022-07-11T15:52:10;3.10;;;0.80;;
52450;SDS011;38366;53.176;6.540;2022-07-11T15:54:36;2.42;;;0.95;;
52450;SDS011;38366;53.176;6.540;2022-07-11T15:57:01;1.25;;;0.80;;
52450;SDS011;38366;53.176;6.540;2022-07-11T15:59:27;2.30;;;0.35;;
52450;SDS011;38366;53.176;6.540;2022-07-11T16:04:19;4.30;;;0.55;;